createdAt,value
2019-03-23T00:01:55.770Z,43.00
2019-03-23T00:04:59.091Z,44.75
2019-03-23T00:08:02.415Z,38.65
2019-03-23T00:11:05.813Z,41.33
2019-03-23T00:14:09.152Z,39.38
2019-03-23T00:17:12.488Z,39.63
2019-03-23T00:20:16.289Z,38.00
2019-03-23T00:23:19.621Z,37.98
2019-03-23T00:26:22.927Z,38.13
2019-03-23T00:29:26.266Z,38.75
2019-03-23T00:32:29.571Z,40.55
2019-03-23T00:35:32.899Z,39.63
2019-03-23T00:38:36.225Z,34.43
2019-03-23T00:41:39.554Z,37.90
2019-03-23T00:44:42.907Z,34.73
2019-03-23T00:47:46.191Z,36.28
2019-03-23T00:50:49.604Z,35.60
2019-03-23T00:53:52.966Z,33.28
2019-03-23T00:56:56.299Z,33.13
2019-03-23T00:59:59.632Z,29.20
2019-03-23T01:03:02.960Z,28.12
2019-03-23T01:06:06.282Z,30.17
2019-03-23T01:09:09.624Z,29.57
2019-03-23T01:12:12.923Z,30.72
2019-03-23T01:15:16.250Z,33.18
2019-03-23T01:18:19.548Z,33.78
2019-03-23T01:21:23.150Z,32.40
2019-03-23T01:24:26.470Z,35.80
2019-03-23T01:27:32.928Z,29.40
2019-03-23T01:30:36.555Z,32.65
2019-03-23T01:33:43.395Z,32.48
2019-03-23T01:36:47.181Z,31.40
2019-03-23T01:39:50.554Z,33.58
2019-03-23T01:42:54.256Z,31.73
2019-03-23T01:45:58.172Z,32.63
2019-03-23T01:49:02.388Z,32.55
2019-03-23T01:52:06.465Z,32.08
2019-03-23T01:55:10.105Z,27.07
2019-03-23T01:58:14.282Z,30.35
2019-03-23T02:01:18.628Z,31.40
2019-03-23T02:04:22.457Z,31.40
2019-03-23T02:07:25.791Z,30.05
2019-03-23T02:10:30.218Z,30.82
2019-03-23T02:13:34.002Z,32.20
2019-03-23T02:16:39.747Z,30.90
2019-03-23T02:19:43.428Z,32.35
2019-03-23T02:22:49.459Z,31.52
2019-03-23T02:25:53.358Z,32.13
2019-03-23T02:28:57.343Z,30.95
2019-03-23T02:32:01.616Z,28.95
2019-03-23T02:35:09.056Z,29.90
2019-03-23T02:38:12.400Z,29.87
2019-03-23T02:41:15.682Z,29.20
2019-03-23T02:44:19.089Z,26.87
2019-03-23T02:47:22.427Z,27.95
2019-03-23T02:50:25.850Z,28.98
2019-03-23T02:53:29.182Z,28.92
2019-03-23T02:56:32.520Z,37.70
2019-03-23T02:59:35.846Z,34.27
2019-03-23T03:02:39.188Z,27.40
2019-03-23T03:05:42.510Z,26.40
2019-03-23T03:08:45.828Z,28.67
2019-03-23T03:11:49.147Z,28.67
2019-03-23T03:14:52.489Z,28.67
2019-03-23T03:17:55.815Z,28.55
2019-03-23T03:20:59.389Z,25.80
2019-03-23T03:24:02.701Z,28.67
2019-03-23T03:27:06.018Z,25.90
2019-03-23T03:30:11.146Z,26.93
2019-03-23T03:33:14.443Z,25.25
2019-03-23T03:36:17.753Z,26.60
2019-03-23T03:39:21.061Z,29.60
2019-03-23T03:42:24.449Z,26.93
2019-03-23T03:45:29.103Z,26.77
2019-03-23T03:48:32.413Z,25.55
2019-03-23T03:51:35.724Z,28.07
2019-03-23T03:54:39.020Z,25.82
2019-03-23T03:57:42.332Z,28.23
2019-03-23T04:00:45.624Z,25.52
2019-03-23T04:03:48.938Z,24.63
2019-03-23T04:06:52.237Z,28.47
2019-03-23T04:09:55.565Z,26.73
2019-03-23T04:12:59.068Z,26.07
2019-03-23T04:16:02.365Z,27.25
2019-03-23T04:19:05.693Z,26.45
2019-03-23T04:22:08.974Z,25.52
2019-03-23T04:25:12.301Z,27.02
2019-03-23T04:28:15.627Z,22.05
2019-03-23T04:31:18.939Z,26.87
2019-03-23T04:34:22.261Z,26.37
2019-03-23T04:37:25.567Z,25.60
2019-03-23T04:40:28.865Z,27.10
2019-03-23T04:43:32.169Z,24.65
2019-03-23T04:46:35.501Z,26.37
2019-03-23T04:49:38.829Z,25.20
2019-03-23T04:52:42.131Z,26.10
2019-03-23T04:55:45.440Z,25.32
2019-03-23T04:58:48.739Z,25.30
2019-03-23T05:01:52.069Z,26.35
2019-03-23T05:04:55.369Z,24.52
2019-03-23T05:07:58.701Z,23.12
2019-03-23T05:11:02.042Z,24.20
2019-03-23T05:14:05.344Z,25.55
2019-03-23T05:17:08.692Z,24.87
2019-03-23T05:20:13.728Z,23.85
2019-03-23T05:23:17.030Z,23.52
2019-03-23T05:26:20.343Z,25.12
2019-03-23T05:29:23.660Z,22.80
2019-03-23T05:32:27.014Z,21.25
2019-03-23T05:35:30.323Z,19.25
2019-03-23T05:38:43.613Z,21.33
2019-03-23T05:41:38.703Z,19.73
2019-03-23T05:44:42.478Z,19.75
2019-03-23T05:47:45.796Z,19.48
2019-03-23T05:50:49.105Z,18.30
2019-03-23T05:53:52.437Z,18.70
2019-03-23T05:56:55.790Z,18.82
2019-03-23T05:59:59.108Z,16.45
2019-03-23T06:03:02.432Z,16.87
2019-03-23T06:06:05.733Z,17.05
2019-03-23T06:09:09.059Z,16.45
2019-03-23T06:12:12.372Z,16.23
2019-03-23T06:15:15.676Z,15.70
2019-03-23T06:18:19.022Z,16.62
2019-03-23T06:21:22.321Z,16.10
2019-03-23T06:24:25.657Z,15.83
2019-03-23T06:27:28.966Z,15.98
2019-03-23T06:30:32.308Z,15.53
2019-03-23T06:33:35.653Z,17.95
2019-03-23T06:36:39.107Z,15.90
2019-03-23T06:39:42.505Z,15.68
2019-03-23T06:42:45.923Z,13.72
2019-03-23T06:45:49.354Z,15.30
2019-03-23T06:48:52.751Z,15.25
2019-03-23T06:51:56.175Z,17.60
2019-03-23T06:54:59.563Z,14.25
2019-03-23T06:58:02.963Z,13.50
2019-03-23T07:01:06.383Z,13.15
2019-03-23T07:04:09.806Z,11.85
2019-03-23T07:07:13.218Z,11.60
2019-03-23T07:10:16.621Z,12.60
2019-03-23T07:13:20.023Z,12.75
2019-03-23T07:16:24.942Z,16.07
2019-03-23T07:19:28.397Z,12.80
2019-03-23T07:22:31.832Z,11.40
2019-03-23T07:25:35.246Z,11.90
2019-03-23T07:28:38.644Z,13.35
2019-03-23T07:31:42.055Z,13.18
2019-03-23T07:34:45.458Z,11.55
2019-03-23T07:37:48.873Z,11.93
2019-03-23T07:40:52.278Z,10.93
2019-03-23T07:43:55.689Z,11.18
2019-03-23T07:46:59.104Z,10.65
2019-03-23T07:50:02.585Z,12.25
2019-03-23T07:53:06.247Z,10.15
2019-03-23T07:56:09.645Z,12.28
2019-03-23T07:59:13.062Z,12.10
2019-03-23T08:02:16.482Z,10.40
2019-03-23T08:05:19.884Z,11.75
2019-03-23T08:08:23.311Z,10.58
2019-03-23T08:11:26.707Z,10.95
2019-03-23T08:14:30.111Z,11.43
2019-03-23T08:17:33.552Z,11.88
2019-03-23T08:20:36.954Z,10.53
2019-03-23T08:23:40.393Z,11.25
2019-03-23T08:26:43.785Z,10.10
2019-03-23T08:29:47.214Z,10.13
2019-03-23T08:32:50.624Z,10.50
2019-03-23T08:35:53.997Z,9.85
2019-03-23T08:38:57.407Z,10.48
2019-03-23T08:42:00.813Z,9.70
2019-03-23T08:45:05.599Z,8.95
2019-03-23T08:48:09.018Z,9.85
2019-03-23T08:51:12.415Z,8.58
2019-03-23T08:54:15.842Z,9.95
2019-03-23T08:57:19.227Z,8.08
2019-03-23T09:00:22.631Z,7.92
2019-03-23T09:03:26.042Z,7.87
2019-03-23T09:06:29.418Z,8.68
2019-03-23T09:09:32.821Z,9.08
2019-03-23T09:12:36.221Z,9.58
2019-03-23T09:15:39.632Z,9.80
2019-03-23T09:18:43.121Z,8.88
2019-03-23T09:21:46.510Z,9.53
2019-03-23T09:24:49.917Z,9.35
2019-03-23T09:27:53.321Z,10.48
2019-03-23T09:30:56.745Z,12.13
2019-03-23T09:34:00.178Z,12.45
2019-03-23T09:37:03.549Z,12.73
2019-03-23T09:40:10.953Z,13.58
2019-03-23T09:43:12.499Z,13.62
2019-03-23T09:46:15.919Z,12.82
2019-03-23T09:49:19.324Z,14.58
2019-03-23T09:52:22.716Z,13.88
2019-03-23T09:55:28.667Z,15.03
2019-03-23T09:58:32.350Z,15.10
2019-03-23T10:01:35.747Z,15.70
2019-03-23T10:04:39.156Z,15.78
2019-03-23T10:07:42.570Z,17.17
2019-03-23T10:10:45.947Z,17.15
2019-03-23T10:13:49.351Z,15.72
2019-03-23T10:16:52.773Z,17.25
2019-03-23T10:19:56.195Z,18.15
2019-03-23T10:22:59.604Z,20.43
2019-03-23T10:26:03.033Z,18.52
2019-03-23T10:29:06.500Z,17.50
2019-03-23T10:32:09.950Z,18.23
2019-03-23T10:35:13.363Z,18.50
2019-03-23T10:38:16.783Z,18.30
2019-03-23T10:41:20.202Z,19.75
2019-03-23T10:44:23.607Z,18.32
2019-03-23T10:47:27.082Z,19.07
2019-03-23T10:50:30.505Z,19.12
2019-03-23T10:53:33.907Z,20.30
2019-03-23T10:56:37.399Z,19.85
2019-03-23T10:59:41.101Z,18.50
2019-03-23T11:02:44.517Z,20.70
2019-03-23T11:05:48.260Z,22.07
2019-03-23T11:08:51.767Z,20.10
2019-03-23T11:11:55.171Z,20.68
2019-03-23T11:14:58.568Z,21.15
2019-03-23T11:18:02.043Z,20.82
2019-03-23T11:21:05.484Z,20.92
2019-03-23T11:24:08.881Z,21.35
2019-03-23T11:27:12.268Z,23.22
2019-03-23T11:30:15.682Z,22.05
2019-03-23T11:33:19.068Z,21.62
2019-03-23T11:36:22.512Z,22.07
2019-03-23T11:39:25.963Z,21.95
2019-03-23T11:42:29.382Z,21.10
2019-03-23T11:45:32.756Z,22.90
2019-03-23T11:48:36.169Z,22.60
2019-03-23T11:51:39.565Z,21.15
2019-03-23T11:54:42.970Z,22.30
2019-03-23T11:57:46.384Z,22.13
2019-03-23T12:00:49.809Z,22.67
2019-03-23T12:03:53.179Z,22.48
2019-03-23T12:06:56.569Z,20.90
2019-03-23T12:10:00.041Z,22.17
2019-03-23T12:13:03.461Z,21.55
2019-03-23T12:16:06.868Z,21.15
2019-03-23T12:19:10.270Z,21.70
2019-03-23T12:22:13.677Z,20.75
2019-03-23T12:25:17.078Z,21.25
2019-03-23T12:28:20.477Z,20.77
2019-03-23T12:31:23.903Z,20.00
2019-03-23T12:34:27.347Z,19.92
2019-03-23T12:37:32.501Z,18.73
2019-03-23T12:40:36.558Z,18.57
2019-03-23T12:43:40.006Z,19.25
2019-03-23T12:46:48.199Z,22.45
2019-03-23T12:49:48.528Z,19.32
2019-03-23T12:52:51.947Z,23.87
2019-03-23T12:55:55.334Z,25.08
2019-03-23T12:58:58.763Z,28.75
2019-03-23T13:02:02.165Z,28.57
2019-03-23T13:05:06.773Z,30.88
2019-03-23T13:08:10.193Z,36.90
2019-03-23T13:11:23.128Z,37.90
2019-03-23T13:14:18.714Z,38.05
2019-03-23T13:17:22.115Z,39.98
2019-03-23T13:20:25.639Z,43.38
2019-03-23T13:23:29.035Z,40.65
2019-03-23T13:26:32.421Z,45.88
2019-03-23T13:29:35.821Z,45.80
2019-03-23T13:32:39.209Z,48.68
2019-03-23T13:35:42.627Z,49.08
2019-03-23T13:38:46.046Z,52.50
2019-03-23T13:41:50.372Z,48.25
2019-03-23T13:44:53.791Z,55.28
2019-03-23T13:47:57.195Z,59.38
2019-03-23T13:51:02.281Z,54.77
2019-03-23T13:54:05.603Z,63.50
2019-03-23T13:57:08.997Z,60.15
2019-03-23T14:00:12.407Z,62.75
2019-03-23T14:03:15.807Z,64.72
2019-03-23T14:06:19.232Z,64.37
2019-03-23T14:09:22.668Z,63.90
2019-03-23T14:12:26.044Z,62.55
2019-03-23T14:15:29.433Z,59.90
2019-03-23T14:18:32.837Z,58.30
2019-03-23T14:21:36.248Z,58.23
2019-03-23T14:24:39.660Z,59.30
2019-03-23T14:27:43.059Z,52.90
2019-03-23T14:30:46.470Z,51.73
2019-03-23T14:33:49.868Z,48.80
2019-03-23T14:36:53.314Z,50.00
2019-03-23T14:39:56.742Z,47.93
2019-03-23T14:43:00.195Z,47.27
2019-03-23T14:46:03.598Z,47.38
2019-03-23T14:49:06.911Z,47.40
2019-03-23T14:52:10.236Z,46.68
2019-03-23T14:55:13.571Z,47.55
2019-03-23T14:58:16.885Z,46.77
2019-03-23T15:01:20.199Z,48.98
2019-03-23T15:04:23.775Z,50.08
2019-03-23T15:07:27.087Z,48.87
2019-03-23T15:10:30.410Z,49.10
2019-03-23T15:13:33.726Z,49.45
2019-03-23T15:16:37.040Z,47.25
2019-03-23T15:19:40.334Z,47.70
2019-03-23T15:22:43.645Z,49.48
2019-03-23T15:25:46.974Z,48.70
2019-03-23T15:28:50.288Z,49.90
2019-03-23T15:31:53.791Z,51.28
2019-03-23T15:34:57.103Z,48.00
2019-03-23T15:38:01.914Z,51.45
2019-03-23T15:41:05.232Z,52.35
2019-03-23T15:44:08.534Z,54.15
2019-03-23T15:47:11.924Z,51.80
2019-03-23T15:50:15.246Z,49.58
2019-03-23T15:53:18.559Z,50.92
2019-03-23T15:56:21.886Z,52.33
2019-03-23T15:59:25.200Z,52.58
2019-03-23T16:02:28.506Z,50.70
2019-03-23T16:05:31.815Z,52.23
2019-03-23T16:08:35.132Z,50.38
2019-03-23T16:11:38.444Z,52.25
2019-03-23T16:14:41.750Z,48.58
2019-03-23T16:17:45.062Z,48.70
2019-03-23T16:20:48.372Z,47.88
2019-03-23T16:23:51.689Z,48.60
2019-03-23T16:26:55.014Z,49.23
2019-03-23T16:29:58.310Z,45.45
2019-03-23T16:33:01.843Z,44.67
2019-03-23T16:36:05.143Z,47.70
2019-03-23T16:39:08.474Z,44.70
2019-03-23T16:42:11.841Z,47.03
2019-03-23T16:45:15.139Z,45.48
2019-03-23T16:48:18.447Z,45.90
2019-03-23T16:51:21.739Z,42.85
2019-03-23T16:54:25.067Z,45.08
2019-03-23T16:57:28.393Z,44.48
2019-03-23T17:00:36.037Z,42.43
2019-03-23T17:03:39.356Z,43.55
2019-03-23T17:06:46.556Z,43.55
2019-03-23T17:09:47.769Z,42.23
2019-03-23T17:12:55.382Z,41.80
2019-03-23T17:15:56.161Z,42.38
2019-03-23T17:18:59.514Z,38.28
2019-03-23T17:22:02.919Z,40.17
2019-03-23T17:25:06.638Z,40.55
2019-03-23T17:28:09.946Z,42.05
2019-03-23T17:31:13.328Z,42.38
2019-03-23T17:34:16.667Z,40.52
2019-03-23T17:37:20.049Z,40.10
2019-03-23T17:40:24.620Z,42.23
2019-03-23T17:43:27.874Z,38.83
2019-03-23T17:46:31.186Z,38.60
2019-03-23T17:49:34.513Z,42.60
2019-03-23T17:52:37.826Z,40.83
2019-03-23T17:55:41.136Z,42.05
2019-03-23T17:58:44.435Z,39.98
2019-03-23T18:01:47.824Z,39.83
2019-03-23T18:04:51.167Z,38.88
2019-03-23T18:07:54.835Z,41.05
2019-03-23T18:10:58.684Z,40.05
2019-03-23T18:14:06.514Z,43.98
2019-03-23T18:17:10.736Z,42.15
2019-03-23T18:20:14.646Z,38.65
2019-03-23T18:23:18.817Z,43.15
2019-03-23T18:26:22.290Z,42.27
2019-03-23T18:29:25.587Z,40.58
2019-03-23T18:32:29.397Z,42.70
2019-03-23T18:35:33.829Z,45.30
2019-03-23T18:38:39.493Z,44.55
2019-03-23T18:41:42.827Z,46.28
2019-03-23T18:44:46.130Z,43.50
2019-03-23T18:47:49.446Z,47.67
2019-03-23T18:50:54.262Z,46.63
2019-03-23T18:53:58.558Z,45.20
2019-03-23T18:57:02.575Z,46.15
2019-03-23T19:00:08.506Z,45.12
2019-03-23T19:03:12.070Z,47.27
2019-03-23T19:06:16.086Z,47.50
2019-03-23T19:09:20.571Z,48.02
2019-03-23T19:12:23.934Z,46.83
2019-03-23T19:15:27.420Z,44.55
2019-03-23T19:18:30.752Z,43.48
2019-03-23T19:21:34.129Z,44.63
2019-03-23T19:24:38.530Z,44.30
2019-03-23T19:27:41.850Z,45.50
2019-03-23T19:30:45.227Z,50.00
2019-03-23T19:33:48.564Z,46.33
2019-03-23T19:36:51.892Z,45.28
2019-03-23T19:39:55.228Z,43.92
2019-03-23T19:42:59.694Z,42.43
2019-03-23T19:46:03.322Z,44.50
2019-03-23T19:49:06.620Z,46.90
2019-03-23T19:52:09.966Z,46.50
2019-03-23T19:55:13.359Z,45.05
2019-03-23T19:58:16.800Z,45.35
2019-03-23T20:01:20.208Z,45.20
2019-03-23T20:04:23.570Z,44.50
2019-03-23T20:07:33.002Z,46.30
2019-03-23T20:10:31.950Z,44.98
2019-03-23T20:13:35.426Z,97.75
2019-03-23T20:16:38.786Z,70.42
2019-03-23T20:19:42.121Z,96.45
2019-03-23T20:22:45.711Z,61.70
2019-03-23T20:25:49.207Z,46.92
2019-03-23T20:28:52.533Z,47.43
2019-03-23T20:31:55.986Z,46.53
2019-03-23T20:35:01.642Z,46.20
2019-03-23T20:38:04.970Z,47.70
2019-03-23T20:41:08.395Z,47.30
2019-03-23T20:44:11.724Z,43.52
2019-03-23T20:47:15.068Z,47.43
2019-03-23T20:50:18.391Z,46.60
2019-03-23T20:53:21.743Z,50.10
2019-03-23T20:56:25.088Z,47.73
2019-03-23T20:59:28.425Z,48.13
2019-03-23T21:02:31.749Z,56.25
2019-03-23T21:05:35.106Z,52.80
2019-03-23T21:08:38.422Z,54.42
2019-03-23T21:11:41.927Z,53.50
2019-03-23T21:14:45.347Z,55.85
2019-03-23T21:17:51.429Z,53.38
2019-03-23T21:20:53.783Z,51.25
2019-03-23T21:23:57.082Z,59.48
2019-03-23T21:27:02.263Z,57.25
2019-03-23T21:30:13.590Z,52.98
2019-03-23T21:33:16.933Z,52.70
2019-03-23T21:36:20.288Z,55.03
2019-03-23T21:39:23.735Z,52.67
2019-03-23T21:42:27.067Z,52.55
2019-03-23T21:45:30.438Z,51.33
2019-03-23T21:48:33.805Z,50.60
2019-03-23T21:51:37.119Z,52.15
2019-03-23T21:54:40.435Z,49.25
2019-03-23T21:57:43.795Z,50.12
2019-03-23T22:00:47.113Z,50.08
2019-03-23T22:03:50.425Z,49.75
2019-03-23T22:06:54.068Z,52.45
2019-03-23T22:09:57.640Z,50.83
2019-03-23T22:13:01.000Z,53.25
2019-03-23T22:16:05.398Z,50.78
2019-03-23T22:19:08.832Z,47.62
2019-03-23T22:22:12.176Z,51.23
2019-03-23T22:25:15.910Z,50.98
2019-03-23T22:28:19.244Z,49.90
2019-03-23T22:31:22.663Z,46.95
2019-03-23T22:34:25.999Z,49.93
2019-03-23T22:37:29.331Z,48.50
2019-03-23T22:40:32.647Z,49.50
2019-03-23T22:43:36.120Z,48.48
2019-03-23T22:46:39.478Z,52.65
2019-03-23T22:49:42.800Z,50.95
2019-03-23T22:52:46.171Z,50.85
2019-03-23T22:55:49.542Z,51.42
2019-03-23T22:58:52.853Z,53.68
2019-03-23T23:01:56.215Z,52.75
2019-03-23T23:04:59.534Z,54.03
2019-03-23T23:08:02.889Z,53.20
2019-03-23T23:11:06.286Z,75.00
2019-03-23T23:14:09.642Z,101.42
2019-03-23T23:17:12.999Z,138.60
2019-03-23T23:20:16.900Z,52.03
2019-03-23T23:23:20.219Z,52.27
2019-03-23T23:26:23.537Z,49.90
2019-03-23T23:29:29.115Z,51.30
2019-03-23T23:32:32.552Z,52.03
2019-03-23T23:35:36.156Z,50.48
2019-03-23T23:38:39.498Z,51.02
2019-03-23T23:41:42.990Z,46.98
2019-03-23T23:44:46.361Z,51.90
2019-03-23T23:47:49.812Z,50.67
2019-03-23T23:50:53.842Z,51.70
2019-03-23T23:53:57.193Z,51.83
2019-03-23T23:57:00.537Z,51.63
